createdAt,value
2019-03-28T00:00:04.365Z,14.20
2019-03-28T00:02:43.921Z,15.43
2019-03-28T00:05:13.207Z,14.58
2019-03-28T00:07:42.375Z,13.38
2019-03-28T00:10:11.591Z,15.68
2019-03-28T00:12:40.821Z,13.48
2019-03-28T00:15:10.096Z,14.35
2019-03-28T00:17:39.355Z,15.32
2019-03-28T00:20:08.688Z,16.45
2019-03-28T00:22:39.589Z,14.93
2019-03-28T00:25:13.240Z,15.60
2019-03-28T00:27:42.411Z,15.18
2019-03-28T00:30:11.604Z,16.17
2019-03-28T00:32:40.915Z,15.58
2019-03-28T00:35:10.103Z,17.77
2019-03-28T00:37:39.274Z,12.85
2019-03-28T00:40:08.520Z,15.00
2019-03-28T00:42:37.849Z,14.87
2019-03-28T00:45:07.045Z,18.20
2019-03-28T00:47:36.374Z,13.22
2019-03-28T00:50:06.554Z,14.43
2019-03-28T00:52:35.767Z,15.45
2019-03-28T00:55:06.010Z,12.10
2019-03-28T00:57:35.266Z,17.32
2019-03-28T01:00:06.017Z,16.23
2019-03-28T01:02:35.284Z,17.98
2019-03-28T01:05:06.004Z,16.90
2019-03-28T01:07:35.255Z,16.90
2019-03-28T01:10:05.722Z,17.85
2019-03-28T01:12:35.055Z,17.17
2019-03-28T01:15:05.911Z,17.98
2019-03-28T01:17:35.086Z,17.30
2019-03-28T01:20:05.725Z,17.95
2019-03-28T01:22:34.913Z,12.35
2019-03-28T01:25:05.351Z,16.17
2019-03-28T01:27:34.652Z,16.00
2019-03-28T01:30:05.282Z,16.60
2019-03-28T01:32:34.580Z,16.48
2019-03-28T01:35:04.148Z,14.63
2019-03-28T01:37:33.342Z,14.98
2019-03-28T01:40:02.509Z,19.37
2019-03-28T01:42:31.781Z,14.73
2019-03-28T01:45:00.937Z,16.17
2019-03-28T01:47:30.681Z,14.98
2019-03-28T01:49:59.920Z,15.63
2019-03-28T01:52:29.104Z,14.85
2019-03-28T01:54:58.259Z,19.52
2019-03-28T01:57:27.458Z,17.77
2019-03-28T01:59:56.723Z,14.30
2019-03-28T02:02:25.843Z,18.52
2019-03-28T02:04:55.054Z,17.07
2019-03-28T02:07:24.227Z,20.62
2019-03-28T02:09:53.414Z,19.75
2019-03-28T02:12:22.656Z,18.00
2019-03-28T02:14:51.806Z,17.37
2019-03-28T02:17:21.016Z,16.00
2019-03-28T02:19:50.291Z,19.85
2019-03-28T02:22:19.559Z,21.27
2019-03-28T02:24:48.750Z,19.92
2019-03-28T02:27:23.772Z,17.00
2019-03-28T02:29:48.846Z,18.07
2019-03-28T02:32:18.097Z,22.02
2019-03-28T02:34:49.152Z,19.62
2019-03-28T02:37:18.176Z,20.35
2019-03-28T02:39:47.337Z,18.65
2019-03-28T02:42:16.576Z,22.45
2019-03-28T02:44:45.770Z,20.17
2019-03-28T02:47:15.010Z,16.42
2019-03-28T02:49:44.223Z,24.10
2019-03-28T02:52:13.399Z,20.25
2019-03-28T02:54:42.599Z,20.35
2019-03-28T02:57:11.819Z,29.18
2019-03-28T02:59:41.076Z,20.35
2019-03-28T03:02:10.523Z,27.20
2019-03-28T03:04:39.822Z,25.02
2019-03-28T03:07:09.006Z,25.08
2019-03-28T03:09:38.294Z,23.52
2019-03-28T03:12:07.439Z,23.85
2019-03-28T03:14:37.521Z,29.60
2019-03-28T03:17:07.097Z,25.90
2019-03-28T03:19:36.256Z,32.93
2019-03-28T03:22:05.463Z,25.40
2019-03-28T03:24:35.726Z,26.37
2019-03-28T03:27:04.920Z,26.95
2019-03-28T03:29:34.268Z,26.23
2019-03-28T03:32:03.448Z,37.95
2019-03-28T03:34:33.111Z,27.07
2019-03-28T03:37:03.786Z,23.00
2019-03-28T03:39:33.359Z,25.75
2019-03-28T03:42:02.723Z,30.57
2019-03-28T03:44:32.977Z,24.98
2019-03-28T03:47:02.071Z,27.17
2019-03-28T03:49:31.359Z,24.25
2019-03-28T03:52:00.541Z,25.30
2019-03-28T03:54:32.679Z,27.45
2019-03-28T03:57:02.066Z,30.23
2019-03-28T03:59:31.240Z,24.23
2019-03-28T04:02:00.467Z,28.15
2019-03-28T04:04:29.912Z,26.57
2019-03-28T04:06:59.060Z,26.35
2019-03-28T04:09:28.287Z,28.73
2019-03-28T04:11:57.527Z,29.00
2019-03-28T04:14:26.686Z,29.67
2019-03-28T04:16:55.938Z,30.85
2019-03-28T04:19:25.227Z,28.27
2019-03-28T04:21:54.406Z,28.38
2019-03-28T04:24:23.517Z,36.15
2019-03-28T04:26:52.689Z,27.17
2019-03-28T04:29:21.953Z,24.27
2019-03-28T04:31:51.144Z,38.75
2019-03-28T04:34:20.334Z,30.37
2019-03-28T04:36:49.542Z,29.85
2019-03-28T04:39:18.727Z,29.45
2019-03-28T04:41:47.880Z,29.00
2019-03-28T04:44:17.130Z,25.97
2019-03-28T04:46:46.312Z,36.28
2019-03-28T04:49:15.833Z,32.78
2019-03-28T04:51:45.139Z,38.70
2019-03-28T04:54:14.296Z,30.23
2019-03-28T04:56:43.552Z,30.48
2019-03-28T04:59:12.704Z,31.75
2019-03-28T05:01:41.963Z,29.63
2019-03-28T05:04:11.077Z,27.15
2019-03-28T05:06:40.331Z,38.88
2019-03-28T05:09:09.502Z,30.12
2019-03-28T05:11:38.755Z,32.42
2019-03-28T05:14:07.980Z,30.65
2019-03-28T05:16:37.259Z,32.88
2019-03-28T05:19:06.419Z,33.10
2019-03-28T05:21:35.601Z,32.25
2019-03-28T05:24:04.793Z,29.72
2019-03-28T05:26:33.975Z,31.50
2019-03-28T05:29:03.071Z,28.70
2019-03-28T05:31:32.233Z,37.05
2019-03-28T05:34:01.428Z,35.08
2019-03-28T05:36:30.575Z,36.77
2019-03-28T05:38:59.785Z,32.83
2019-03-28T05:41:28.897Z,33.50
2019-03-28T05:43:57.967Z,32.58
2019-03-28T05:46:27.153Z,33.75
2019-03-28T05:48:56.332Z,32.50
2019-03-28T05:51:25.489Z,34.85
2019-03-28T05:53:54.681Z,34.85
2019-03-28T05:56:23.903Z,33.60
2019-03-28T05:58:54.266Z,37.08
2019-03-28T06:01:23.610Z,32.80
2019-03-28T06:03:52.790Z,38.05
2019-03-28T06:06:21.969Z,37.03
2019-03-28T06:08:51.115Z,44.25
2019-03-28T06:11:20.333Z,39.33
2019-03-28T06:13:49.590Z,37.65
2019-03-28T06:16:18.833Z,41.05
2019-03-28T06:18:47.947Z,35.30
2019-03-28T06:21:17.005Z,35.52
2019-03-28T06:23:46.341Z,36.23
2019-03-28T06:26:15.656Z,34.75
2019-03-28T06:28:45.027Z,40.58
2019-03-28T06:31:14.259Z,34.48
2019-03-28T06:33:44.598Z,38.50
2019-03-28T06:36:14.345Z,38.65
2019-03-28T06:38:43.622Z,36.77
2019-03-28T06:41:12.794Z,38.33
2019-03-28T06:43:42.172Z,42.50
2019-03-28T06:46:11.492Z,40.65
2019-03-28T06:48:40.601Z,39.18
2019-03-28T06:51:09.703Z,37.78
2019-03-28T06:53:39.011Z,40.90
2019-03-28T06:56:08.108Z,37.25
2019-03-28T06:58:37.280Z,44.25
2019-03-28T07:01:06.491Z,37.55
2019-03-28T07:03:35.685Z,35.90
2019-03-28T07:06:04.914Z,55.85
2019-03-28T07:08:34.092Z,39.25
2019-03-28T07:11:03.268Z,39.55
2019-03-28T07:13:32.502Z,36.35
2019-03-28T07:16:01.756Z,44.93
2019-03-28T07:18:30.999Z,34.35
2019-03-28T07:21:00.257Z,33.73
2019-03-28T07:23:29.515Z,32.93
2019-03-28T07:25:58.750Z,33.30
2019-03-28T07:28:28.019Z,35.40
2019-03-28T07:30:57.196Z,33.80
2019-03-28T07:33:26.343Z,32.67
2019-03-28T07:35:55.567Z,32.95
2019-03-28T07:38:24.722Z,32.23
2019-03-28T07:40:53.901Z,36.45
2019-03-28T07:43:25.212Z,30.82
2019-03-28T07:45:53.839Z,33.40
2019-03-28T07:48:23.004Z,38.17
2019-03-28T07:50:52.313Z,35.15
2019-03-28T07:53:21.640Z,28.77
2019-03-28T07:55:51.092Z,30.92
2019-03-28T07:58:20.362Z,36.58
2019-03-28T08:00:49.769Z,26.65
2019-03-28T08:03:19.168Z,30.82
2019-03-28T08:05:48.389Z,31.30
2019-03-28T08:08:17.763Z,25.57
2019-03-28T08:10:47.098Z,31.33
2019-03-28T08:13:17.478Z,30.70
2019-03-28T08:15:46.710Z,26.12
2019-03-28T08:18:16.004Z,26.75
2019-03-28T08:20:45.242Z,27.90
2019-03-28T08:23:14.575Z,23.52
2019-03-28T08:25:43.822Z,25.62
2019-03-28T08:28:13.223Z,28.23
2019-03-28T08:30:45.223Z,24.18
2019-03-28T08:33:13.442Z,23.42
2019-03-28T08:35:42.702Z,23.90
2019-03-28T08:38:12.031Z,23.18
2019-03-28T08:40:42.156Z,22.67
2019-03-28T08:43:11.497Z,25.68
2019-03-28T08:45:40.806Z,19.60
2019-03-28T08:48:10.106Z,20.32
2019-03-28T08:50:39.309Z,17.48
2019-03-28T08:53:08.615Z,18.95
2019-03-28T08:55:38.886Z,24.37
2019-03-28T08:58:08.233Z,18.60
2019-03-28T09:00:50.961Z,21.05
2019-03-28T09:03:08.504Z,20.88
2019-03-28T09:05:37.881Z,19.75
2019-03-28T09:08:07.249Z,18.73
2019-03-28T09:10:36.599Z,16.95
2019-03-28T09:13:05.917Z,17.55
2019-03-28T09:15:43.800Z,16.23
2019-03-28T09:18:06.205Z,17.73
2019-03-28T09:20:36.543Z,19.15
2019-03-28T09:23:05.754Z,17.10
2019-03-28T09:25:35.110Z,14.75
2019-03-28T09:28:04.374Z,20.65
2019-03-28T09:30:47.636Z,14.18
2019-03-28T09:33:05.596Z,18.73
2019-03-28T09:35:34.951Z,18.42
2019-03-28T09:38:04.451Z,17.10
2019-03-28T09:40:33.774Z,19.77
2019-03-28T09:43:03.106Z,18.07
2019-03-28T09:45:32.468Z,17.65
2019-03-28T09:48:01.805Z,17.98
2019-03-28T09:50:31.149Z,16.67
2019-03-28T09:53:00.757Z,16.67
2019-03-28T09:55:30.278Z,16.80
2019-03-28T09:57:59.636Z,17.90
2019-03-28T10:00:32.474Z,17.65
2019-03-28T10:02:59.840Z,18.20
2019-03-28T10:05:29.173Z,17.05
2019-03-28T10:07:58.498Z,20.15
2019-03-28T10:10:27.817Z,20.12
2019-03-28T10:12:57.078Z,17.23
2019-03-28T10:15:27.385Z,16.35
2019-03-28T10:17:56.759Z,17.60
2019-03-28T10:20:26.042Z,17.32
2019-03-28T10:22:55.354Z,16.90
2019-03-28T10:25:24.742Z,20.00
2019-03-28T10:27:53.994Z,17.27
2019-03-28T10:30:24.866Z,18.02
2019-03-28T10:32:54.174Z,17.40
2019-03-28T10:35:24.983Z,18.10
2019-03-28T10:37:54.292Z,16.42
2019-03-28T10:40:23.626Z,15.43
2019-03-28T10:42:52.961Z,16.32
2019-03-28T10:45:22.386Z,22.40
2019-03-28T10:47:51.713Z,17.57
2019-03-28T10:50:21.039Z,28.15
2019-03-28T10:52:50.278Z,19.87
2019-03-28T10:55:19.603Z,19.45
2019-03-28T10:57:48.974Z,20.70
2019-03-28T11:00:24.148Z,18.32
2019-03-28T11:02:49.335Z,20.12
2019-03-28T11:05:18.596Z,18.85
2019-03-28T11:07:47.936Z,16.85
2019-03-28T11:10:18.303Z,20.70
2019-03-28T11:12:47.598Z,21.73
2019-03-28T11:15:16.970Z,19.52
2019-03-28T11:17:46.357Z,21.17
2019-03-28T11:20:15.709Z,21.37
2019-03-28T11:22:45.089Z,22.75
2019-03-28T11:25:14.585Z,19.85
2019-03-28T11:27:43.939Z,20.02
2019-03-28T11:30:13.371Z,22.90
2019-03-28T11:32:42.666Z,20.82
2019-03-28T11:35:12.035Z,25.68
2019-03-28T11:37:41.423Z,19.80
2019-03-28T11:40:10.885Z,20.97
2019-03-28T11:42:40.205Z,22.20
2019-03-28T11:45:10.739Z,20.68
2019-03-28T11:47:40.057Z,20.35
2019-03-28T11:50:09.899Z,16.90
2019-03-28T11:52:42.417Z,18.20
2019-03-28T11:55:10.073Z,17.32
2019-03-28T11:57:39.374Z,17.00
2019-03-28T12:00:13.578Z,18.85
2019-03-28T12:02:42.921Z,17.60
2019-03-28T12:05:12.246Z,18.25
2019-03-28T12:07:41.571Z,16.77
2019-03-28T12:10:11.523Z,16.60
2019-03-28T12:12:40.822Z,16.27
2019-03-28T12:15:10.682Z,20.00
2019-03-28T12:17:40.008Z,15.28
2019-03-28T12:20:09.424Z,17.15
2019-03-28T12:22:38.780Z,16.60
2019-03-28T12:25:08.285Z,17.98
2019-03-28T12:27:37.637Z,17.60
2019-03-28T12:30:08.140Z,17.32
2019-03-28T12:32:37.484Z,17.80
2019-03-28T12:35:07.002Z,16.93
2019-03-28T12:37:36.846Z,15.78
2019-03-28T12:40:08.034Z,16.67
2019-03-28T12:42:37.342Z,18.77
2019-03-28T12:45:08.406Z,18.02
2019-03-28T12:47:42.601Z,18.23
2019-03-28T12:50:09.175Z,17.70
2019-03-28T12:52:38.478Z,17.40
2019-03-28T12:55:08.146Z,17.40
2019-03-28T12:57:37.442Z,18.25
2019-03-28T13:00:07.494Z,18.30
2019-03-28T13:02:36.813Z,17.75
2019-03-28T13:05:07.447Z,20.02
2019-03-28T13:07:36.792Z,17.37
2019-03-28T13:10:08.102Z,16.70
2019-03-28T13:12:37.794Z,16.75
2019-03-28T13:15:07.536Z,17.20
2019-03-28T13:17:36.872Z,18.37
2019-03-28T13:20:07.360Z,18.35
2019-03-28T13:22:36.717Z,18.23
2019-03-28T13:25:06.501Z,18.55
2019-03-28T13:27:36.520Z,20.15
2019-03-28T13:30:07.759Z,18.50
2019-03-28T13:32:41.923Z,18.62
2019-03-28T13:35:08.408Z,18.05
2019-03-28T13:37:37.766Z,17.75
2019-03-28T13:40:07.308Z,16.65
2019-03-28T13:42:36.750Z,21.30
2019-03-28T13:45:07.375Z,16.80
2019-03-28T13:47:36.648Z,18.62
2019-03-28T13:50:06.971Z,16.52
2019-03-28T13:52:36.188Z,17.15
2019-03-28T13:55:06.458Z,18.23
2019-03-28T13:57:35.674Z,17.27
2019-03-28T14:00:08.991Z,17.75
2019-03-28T14:02:38.217Z,20.92
2019-03-28T14:05:07.774Z,16.55
2019-03-28T14:07:36.921Z,19.87
2019-03-28T14:10:07.018Z,17.62
2019-03-28T14:12:36.226Z,17.65
2019-03-28T14:15:08.462Z,19.27
2019-03-28T14:17:37.664Z,19.02
2019-03-28T14:20:07.400Z,21.37
2019-03-28T14:22:37.309Z,21.48
2019-03-28T14:25:07.747Z,19.57
2019-03-28T14:27:36.978Z,20.08
2019-03-28T14:30:09.623Z,19.42
2019-03-28T14:32:52.175Z,18.42
2019-03-28T14:35:09.615Z,18.23
2019-03-28T14:37:40.742Z,18.10
2019-03-28T14:40:09.778Z,18.27
2019-03-28T14:42:39.054Z,18.57
2019-03-28T14:45:10.036Z,18.40
2019-03-28T14:47:39.233Z,18.65
2019-03-28T14:50:08.885Z,19.90
2019-03-28T14:52:38.681Z,18.67
2019-03-28T14:55:09.715Z,20.25
2019-03-28T14:57:38.899Z,24.10
2019-03-28T15:00:09.524Z,26.60
2019-03-28T15:02:38.754Z,23.20
2019-03-28T15:05:07.970Z,24.00
2019-03-28T15:07:37.214Z,26.87
2019-03-28T15:10:06.750Z,24.47
2019-03-28T15:12:35.978Z,28.55
2019-03-28T15:15:05.725Z,29.18
2019-03-28T15:17:34.875Z,29.12
2019-03-28T15:20:05.278Z,30.48
2019-03-28T15:22:34.602Z,25.88
2019-03-28T15:25:04.642Z,29.98
2019-03-28T15:27:33.982Z,25.48
2019-03-28T15:30:04.343Z,28.35
2019-03-28T15:32:34.863Z,25.85
2019-03-28T15:35:04.634Z,27.27
2019-03-28T15:37:33.856Z,28.45
2019-03-28T15:40:04.160Z,26.30
2019-03-28T15:42:33.385Z,23.90
2019-03-28T15:45:02.718Z,22.80
2019-03-28T15:47:32.926Z,25.30
2019-03-28T15:50:02.292Z,24.87
2019-03-28T15:52:31.770Z,25.02
2019-03-28T15:55:01.221Z,22.77
2019-03-28T15:57:30.398Z,28.32
2019-03-28T15:59:59.726Z,24.05
2019-03-28T16:02:28.957Z,26.95
2019-03-28T16:04:58.432Z,25.60
2019-03-28T16:07:29.412Z,24.15
2019-03-28T16:09:58.358Z,24.98
2019-03-28T16:12:27.602Z,23.73
2019-03-28T16:14:56.807Z,24.32
2019-03-28T16:17:26.088Z,25.45
2019-03-28T16:19:55.492Z,25.15
2019-03-28T16:22:24.657Z,26.15
2019-03-28T16:24:53.780Z,30.95
2019-03-28T16:27:23.071Z,24.55
2019-03-28T16:29:54.343Z,21.60
2019-03-28T16:32:23.469Z,26.33
2019-03-28T16:34:52.683Z,28.23
2019-03-28T16:37:22.032Z,40.60
2019-03-28T16:39:51.190Z,25.45
2019-03-28T16:42:20.487Z,33.73
2019-03-28T16:44:49.769Z,30.75
2019-03-28T16:47:20.322Z,26.75
2019-03-28T16:49:53.710Z,33.30
2019-03-28T16:52:25.789Z,27.30
2019-03-28T16:54:56.433Z,26.77
2019-03-28T16:57:25.886Z,23.45
2019-03-28T16:59:55.108Z,27.93
2019-03-28T17:02:24.339Z,30.02
2019-03-28T17:04:53.441Z,27.00
2019-03-28T17:07:24.069Z,30.97
2019-03-28T17:09:53.244Z,24.30
2019-03-28T17:12:22.489Z,24.52
2019-03-28T17:14:51.831Z,24.95
2019-03-28T17:17:22.337Z,26.97
2019-03-28T17:19:52.650Z,28.80
2019-03-28T17:22:22.926Z,21.33
2019-03-28T17:24:52.074Z,22.98
2019-03-28T17:27:23.088Z,23.90
2019-03-28T17:29:52.136Z,23.80
2019-03-28T17:32:21.361Z,24.52
2019-03-28T17:34:50.506Z,21.52
2019-03-28T17:37:19.867Z,26.68
2019-03-28T17:39:49.169Z,19.35
2019-03-28T17:42:18.321Z,23.27
2019-03-28T17:44:47.485Z,32.25
2019-03-28T17:47:16.646Z,23.83
2019-03-28T17:49:45.854Z,22.27
2019-03-28T17:52:15.102Z,23.67
2019-03-28T17:54:44.225Z,25.43
2019-03-28T17:57:13.746Z,21.35
2019-03-28T17:59:45.307Z,18.17
2019-03-28T18:02:13.930Z,16.82
2019-03-28T18:04:48.051Z,19.75
2019-03-28T18:07:13.943Z,22.35
2019-03-28T18:09:43.161Z,21.10
2019-03-28T18:12:12.293Z,20.77
2019-03-28T18:14:41.502Z,34.80
2019-03-28T18:17:10.654Z,18.17
2019-03-28T18:19:39.821Z,22.30
2019-03-28T18:22:08.961Z,18.77
2019-03-28T18:24:38.198Z,21.52
2019-03-28T18:27:07.335Z,21.70
2019-03-28T18:29:36.651Z,37.10
2019-03-28T18:32:05.789Z,27.37
2019-03-28T18:34:35.020Z,24.70
2019-03-28T18:37:04.569Z,18.67
2019-03-28T18:39:33.738Z,19.50
2019-03-28T18:42:02.983Z,17.57
2019-03-28T18:44:32.233Z,17.98
2019-03-28T18:47:01.416Z,21.73
2019-03-28T18:49:31.076Z,17.87
2019-03-28T18:52:00.469Z,14.87
2019-03-28T18:54:29.615Z,24.43
2019-03-28T18:56:58.959Z,15.40
2019-03-28T18:59:28.110Z,15.95
2019-03-28T19:01:57.310Z,20.52
2019-03-28T19:04:26.519Z,12.90
2019-03-28T19:06:57.739Z,11.22
2019-03-28T19:09:26.511Z,16.20
2019-03-28T19:11:56.153Z,12.45
2019-03-28T19:14:25.453Z,14.58
2019-03-28T19:16:54.694Z,15.95
2019-03-28T19:19:23.879Z,12.65
2019-03-28T19:21:55.704Z,14.25
2019-03-28T19:24:25.735Z,16.73
2019-03-28T19:26:54.875Z,18.87
2019-03-28T19:29:24.110Z,14.38
2019-03-28T19:31:53.299Z,13.93
2019-03-28T19:34:22.586Z,14.35
2019-03-28T19:36:52.625Z,14.65
2019-03-28T19:39:27.666Z,13.35
2019-03-28T19:41:57.047Z,14.87
2019-03-28T19:44:26.563Z,14.05
2019-03-28T19:46:55.789Z,14.13
2019-03-28T19:49:25.065Z,17.62
2019-03-28T19:51:54.260Z,18.37
2019-03-28T19:54:23.456Z,17.10
2019-03-28T19:56:52.748Z,16.35
2019-03-28T19:59:21.935Z,14.98
2019-03-28T20:01:51.087Z,15.30
2019-03-28T20:04:20.721Z,15.95
2019-03-28T20:06:50.776Z,18.15
2019-03-28T20:09:20.167Z,18.12
2019-03-28T20:11:49.368Z,18.60
2019-03-28T20:14:18.564Z,21.70
2019-03-28T20:16:47.857Z,21.95
2019-03-28T20:19:17.971Z,27.30
2019-03-28T20:21:47.280Z,29.25
2019-03-28T20:24:16.521Z,24.82
2019-03-28T20:26:45.817Z,28.42
2019-03-28T20:29:16.014Z,25.88
2019-03-28T20:31:45.758Z,29.42
2019-03-28T20:34:15.074Z,30.62
2019-03-28T20:36:44.491Z,18.57
2019-03-28T20:39:14.731Z,15.95
2019-03-28T20:41:43.861Z,16.10
2019-03-28T20:44:13.106Z,15.23
2019-03-28T20:46:42.333Z,13.10
2019-03-28T20:49:11.503Z,14.30
2019-03-28T20:51:40.742Z,13.50
2019-03-28T20:54:09.958Z,17.27
2019-03-28T20:56:39.235Z,12.18
2019-03-28T20:59:08.456Z,11.85
2019-03-28T21:01:37.728Z,13.48
2019-03-28T21:04:07.204Z,12.03
2019-03-28T21:06:37.170Z,12.80
2019-03-28T21:09:06.663Z,14.07
2019-03-28T21:11:36.005Z,17.67
2019-03-28T21:14:05.163Z,10.90
2019-03-28T21:16:34.404Z,12.95
2019-03-28T21:19:03.630Z,16.15
2019-03-28T21:21:32.860Z,31.00
2019-03-28T21:24:02.102Z,13.03
2019-03-28T21:26:31.436Z,13.95
2019-03-28T21:29:00.614Z,15.38
2019-03-28T21:31:29.847Z,18.57
2019-03-28T21:33:59.156Z,15.23
2019-03-28T21:36:30.059Z,12.23
2019-03-28T21:38:59.295Z,23.70
2019-03-28T21:41:28.454Z,37.13
2019-03-28T21:43:57.639Z,18.32
2019-03-28T21:46:26.863Z,20.82
2019-03-28T21:48:56.065Z,13.20
2019-03-28T21:51:25.277Z,12.58
2019-03-28T21:53:54.439Z,23.87
2019-03-28T21:56:24.191Z,30.43
2019-03-28T21:58:53.630Z,14.15
2019-03-28T22:01:22.795Z,23.18
2019-03-28T22:03:51.939Z,16.75
2019-03-28T22:06:21.187Z,15.28
2019-03-28T22:08:51.489Z,16.00
2019-03-28T22:11:20.704Z,30.10
2019-03-28T22:13:49.978Z,14.03
2019-03-28T22:16:19.117Z,15.65
2019-03-28T22:18:48.286Z,14.00
2019-03-28T22:21:17.417Z,13.45
2019-03-28T22:23:46.851Z,15.75
2019-03-28T22:26:16.018Z,13.43
2019-03-28T22:28:45.191Z,19.70
2019-03-28T22:31:14.331Z,15.10
2019-03-28T22:33:43.543Z,15.20
2019-03-28T22:36:12.696Z,21.25
2019-03-28T22:38:41.839Z,11.25
2019-03-28T22:41:10.998Z,21.33
2019-03-28T22:43:40.170Z,20.68
2019-03-28T22:46:09.903Z,15.72
2019-03-28T22:48:39.917Z,29.80
2019-03-28T22:51:09.244Z,15.63
2019-03-28T22:53:38.499Z,15.18
2019-03-28T22:56:07.647Z,19.55
2019-03-28T22:58:36.827Z,17.00
2019-03-28T23:01:05.983Z,17.30
2019-03-28T23:03:35.222Z,46.15
2019-03-28T23:06:04.448Z,14.78
2019-03-28T23:08:33.621Z,30.40
2019-03-28T23:11:02.779Z,16.57
2019-03-28T23:13:31.906Z,14.78
2019-03-28T23:16:01.086Z,17.20
2019-03-28T23:18:30.221Z,16.73
2019-03-28T23:20:59.376Z,39.90
2019-03-28T23:23:28.557Z,35.10
2019-03-28T23:25:57.783Z,36.00
2019-03-28T23:28:26.884Z,17.82
2019-03-28T23:30:56.079Z,23.92
2019-03-28T23:33:25.303Z,39.75
2019-03-28T23:35:54.553Z,24.85
2019-03-28T23:38:23.810Z,19.85
2019-03-28T23:40:53.057Z,33.02
2019-03-28T23:43:22.283Z,22.52
2019-03-28T23:45:51.550Z,22.95
2019-03-28T23:48:21.163Z,15.65
2019-03-28T23:50:51.076Z,26.45
2019-03-28T23:53:20.370Z,17.23
2019-03-28T23:55:49.660Z,15.65
2019-03-28T23:58:18.976Z,13.75
